KEWK/EWK METAR and TAF weather

Enter ICAO airport designator
Station Type Date Time Source
KEWK METAR 2022/01/27 22:56 UTC NOAA

KEWK 272256Z AUTO 02010KT 10SM OVC055 06/M06 A3032 RMK AO2 SLP279 T00611056


Station Type Date Time Source
KEWK Decoded METAR 2022/01/27 22:56 UTC NOAA

Newton, Newton City/County Airport, KS, United States (KEWK) 38-03N 097-17W
Jan 27, 2022 - 05:56 PM EST / 2022.01.27 2256 UTC
Wind: from the NNE (020 degrees) at 12 MPH (10 KT):0
Visibility: 10 mile(s):0
Sky conditions: overcast
Temperature: 43.0 F (6.1 C)
Dew Point: 21.9 F (-5.6 C)
Relative Humidity: 42%
Pressure (altimeter): 30.32 in. Hg (1026 hPa)
ob: KEWK 272256Z AUTO 02010KT 10SM OVC055 06/M06 A3032 RMK AO2 SLP279 T00611056
cycle: 23

Station Type Date Time Source
KEWK TAF UTC NOAA

Error!

Example: see airport list